createdAt,value
2018-09-01T00:01:04.588Z,14.71
2018-09-01T00:03:39.320Z,14.60
2018-09-01T00:06:14.204Z,14.63
2018-09-01T00:08:48.618Z,14.56
2018-09-01T00:11:23.460Z,14.61
2018-09-01T00:13:58.163Z,14.56
2018-09-01T00:16:32.436Z,14.62
2018-09-01T00:19:07.436Z,14.68
2018-09-01T00:21:41.911Z,14.55
2018-09-01T00:24:16.519Z,14.62
2018-09-01T00:26:51.391Z,14.61
2018-09-01T00:29:26.107Z,14.59
2018-09-01T00:32:01.479Z,14.60
2018-09-01T00:34:36.436Z,14.56
2018-09-01T00:37:11.326Z,14.48
2018-09-01T00:39:46.392Z,14.53
2018-09-01T00:42:21.276Z,14.54
2018-09-01T00:44:55.809Z,14.68
2018-09-01T00:47:30.224Z,14.56
2018-09-01T00:50:04.757Z,14.61
2018-09-01T00:52:39.578Z,14.54
2018-09-01T00:55:19.908Z,14.50
2018-09-01T00:57:54.635Z,14.45
2018-09-01T01:00:29.548Z,14.42
2018-09-01T01:03:04.452Z,14.43
2018-09-01T01:05:39.556Z,14.49
2018-09-01T01:08:14.211Z,14.39
2018-09-01T01:10:49.001Z,14.45
2018-09-01T01:13:23.725Z,14.54
2018-09-01T01:15:58.231Z,14.55
2018-09-01T01:18:32.664Z,14.47
2018-09-01T01:21:07.060Z,14.52
2018-09-01T01:23:42.103Z,14.50
2018-09-01T01:26:16.847Z,14.55
2018-09-01T01:28:51.914Z,14.53
2018-09-01T01:31:26.451Z,14.43
2018-09-01T01:34:01.047Z,14.34
2018-09-01T01:36:35.333Z,14.41
2018-09-01T01:39:10.172Z,14.51
2018-09-01T01:41:45.072Z,14.47
2018-09-01T01:44:19.588Z,14.36
2018-09-01T01:46:54.658Z,14.30
2018-09-01T01:49:29.135Z,14.39
2018-09-01T01:52:04.211Z,14.40
2018-09-01T01:54:38.883Z,14.31
2018-09-01T01:57:13.380Z,14.32
2018-09-01T01:59:47.712Z,14.30
2018-09-01T02:02:22.043Z,14.30
2018-09-01T02:04:56.855Z,14.35
2018-09-01T02:07:31.336Z,14.36
2018-09-01T02:10:06.076Z,14.23
2018-09-01T02:12:41.341Z,14.22
2018-09-01T02:15:15.851Z,14.17
2018-09-01T02:17:50.880Z,14.18
2018-09-01T02:20:25.719Z,14.23
2018-09-01T02:23:00.410Z,14.26
2018-09-01T02:25:34.992Z,14.26
2018-09-01T02:28:10.231Z,14.27
2018-09-01T02:30:44.980Z,14.26
2018-09-01T02:33:19.765Z,14.18
2018-09-01T02:35:54.115Z,14.11
2018-09-01T02:38:28.759Z,14.06
2018-09-01T02:41:03.932Z,14.07
2018-09-01T02:43:38.215Z,14.01
2018-09-01T02:46:13.552Z,14.01
2018-09-01T02:48:48.300Z,14.05
2018-09-01T02:51:22.991Z,14.06
2018-09-01T02:53:57.451Z,14.02
2018-09-01T02:56:32.775Z,14.20
2018-09-01T02:59:07.639Z,14.15
2018-09-01T03:01:42.692Z,14.19
2018-09-01T03:04:17.587Z,14.16
2018-09-01T03:06:59.660Z,14.12
2018-09-01T03:09:34.055Z,14.13
2018-09-01T03:12:08.498Z,14.04
2018-09-01T03:14:44.125Z,14.03
2018-09-01T03:17:18.519Z,13.98
2018-09-01T03:19:53.224Z,14.00
2018-09-01T03:22:27.854Z,14.00
2018-09-01T03:25:02.425Z,14.08
2018-09-01T03:27:37.175Z,14.07
2018-09-01T03:30:11.957Z,14.00
2018-09-01T03:32:46.967Z,14.04
2018-09-01T03:35:21.563Z,14.02
2018-09-01T03:37:56.166Z,13.95
2018-09-01T03:40:31.312Z,13.94
2018-09-01T03:43:06.108Z,13.99
2018-09-01T03:45:40.854Z,13.87
2018-09-01T03:48:15.203Z,13.78
2018-09-01T03:50:50.113Z,13.85
2018-09-01T03:53:25.011Z,13.86
2018-09-01T03:55:59.988Z,13.83
2018-09-01T03:58:34.578Z,13.87
2018-09-01T04:01:09.379Z,13.78
2018-09-01T04:03:43.761Z,13.76
2018-09-01T04:06:18.748Z,13.76
2018-09-01T04:08:53.330Z,13.76
2018-09-01T04:11:27.660Z,13.74
2018-09-01T04:14:02.687Z,13.80
2018-09-01T04:16:37.356Z,13.69
2018-09-01T04:19:16.578Z,13.71
2018-09-01T04:21:52.169Z,13.65
2018-09-01T04:24:27.083Z,13.59
2018-09-01T04:27:01.599Z,13.61
2018-09-01T04:29:36.349Z,13.69
2018-09-01T04:32:10.969Z,13.71
2018-09-01T04:34:45.673Z,13.65
2018-09-01T04:37:20.287Z,13.62
2018-09-01T04:39:55.016Z,13.57
2018-09-01T04:42:29.864Z,13.60
2018-09-01T04:45:05.255Z,13.50
2018-09-01T04:47:39.711Z,13.54
2018-09-01T04:50:15.020Z,13.59
2018-09-01T04:52:49.749Z,13.57
2018-09-01T04:55:24.772Z,13.72
2018-09-01T04:57:59.295Z,13.61
2018-09-01T05:00:33.800Z,13.60
2018-09-01T05:03:08.655Z,13.48
2018-09-01T05:05:43.363Z,13.45
2018-09-01T05:08:18.095Z,13.54
2018-09-01T05:10:53.136Z,13.65
2018-09-01T05:13:27.835Z,13.58
2018-09-01T05:16:02.580Z,13.57
2018-09-01T05:18:37.575Z,13.55
2018-09-01T05:21:12.566Z,13.60
2018-09-01T05:23:47.803Z,13.50
2018-09-01T05:26:22.755Z,13.55
2018-09-01T05:28:57.370Z,13.62
2018-09-01T05:31:32.568Z,13.63
2018-09-01T05:34:07.096Z,13.60
2018-09-01T05:36:41.666Z,13.53
2018-09-01T05:39:17.024Z,13.49
2018-09-01T05:41:51.375Z,13.48
2018-09-01T05:44:26.056Z,13.58
2018-09-01T05:47:00.438Z,13.63
2018-09-01T05:49:35.043Z,13.65
2018-09-01T05:52:09.380Z,13.68
2018-09-01T05:54:43.856Z,13.64
2018-09-01T05:57:18.217Z,13.60
2018-09-01T05:59:53.409Z,13.58
2018-09-01T06:02:27.906Z,13.55
2018-09-01T06:05:02.228Z,13.55
2018-09-01T06:07:36.881Z,13.66
2018-09-01T06:10:12.139Z,13.55
2018-09-01T06:12:46.663Z,13.47
2018-09-01T06:15:21.536Z,13.55
2018-09-01T06:17:56.249Z,13.48
2018-09-01T06:20:30.959Z,13.43
2018-09-01T06:23:05.851Z,13.43
2018-09-01T06:25:40.198Z,13.40
2018-09-01T06:28:18.076Z,13.40
2018-09-01T06:30:53.711Z,13.37
2018-09-01T06:33:28.539Z,13.29
2018-09-01T06:36:05.612Z,13.30
2018-09-01T06:38:40.244Z,13.36
2018-09-01T06:41:14.712Z,13.43
2018-09-01T06:43:49.640Z,13.44
2018-09-01T06:46:24.011Z,13.49
2018-09-01T06:48:58.699Z,13.61
2018-09-01T06:51:33.178Z,13.58
2018-09-01T06:54:08.283Z,13.73
2018-09-01T06:56:43.240Z,13.84
2018-09-01T06:59:17.816Z,13.82
2018-09-01T07:01:52.326Z,13.76
2018-09-01T07:04:26.851Z,13.67
2018-09-01T07:07:01.652Z,13.77
2018-09-01T07:09:36.174Z,13.66
2018-09-01T07:12:11.013Z,13.69
2018-09-01T07:14:45.694Z,13.60
2018-09-01T07:17:20.103Z,13.52
2018-09-01T07:19:54.552Z,13.36
2018-09-01T07:22:29.215Z,13.38
2018-09-01T07:25:03.672Z,13.41
2018-09-01T07:27:38.440Z,13.48
2018-09-01T07:30:13.132Z,13.46
2018-09-01T07:32:47.666Z,13.43
2018-09-01T07:35:22.704Z,13.49
2018-09-01T07:37:57.311Z,13.42
2018-09-01T07:40:31.915Z,13.45
2018-09-01T07:43:06.946Z,13.39
2018-09-01T07:45:41.684Z,13.58
2018-09-01T07:48:16.178Z,13.63
2018-09-01T07:50:50.712Z,13.57
2018-09-01T07:53:25.463Z,13.68
2018-09-01T07:56:00.345Z,13.61
2018-09-01T07:58:35.108Z,13.66
2018-09-01T08:01:10.206Z,13.70
2018-09-01T08:03:45.012Z,13.72
2018-09-01T08:06:19.680Z,13.73
2018-09-01T08:08:54.096Z,13.72
2018-09-01T08:11:42.380Z,13.72
2018-09-01T08:14:17.276Z,13.66
2018-09-01T08:16:52.764Z,13.58
2018-09-01T08:19:27.340Z,13.58
2018-09-01T08:22:02.411Z,13.70
2018-09-01T08:24:37.855Z,13.69
2018-09-01T08:27:12.745Z,13.56
2018-09-01T08:29:47.188Z,13.55
2018-09-01T08:32:21.900Z,13.49
2018-09-01T08:34:56.647Z,13.50
2018-09-01T08:37:31.192Z,13.48
2018-09-01T08:40:05.990Z,13.53
2018-09-01T08:42:40.884Z,13.58
2018-09-01T08:45:15.988Z,13.61
2018-09-01T08:47:50.868Z,13.67
2018-09-01T08:50:25.418Z,13.79
2018-09-01T08:53:00.102Z,13.71
2018-09-01T08:55:34.557Z,13.79
2018-09-01T08:58:08.988Z,13.84
2018-09-01T09:00:43.579Z,14.03
2018-09-01T09:03:18.531Z,13.93
2018-09-01T09:05:53.063Z,13.74
2018-09-01T09:08:27.878Z,13.72
2018-09-01T09:11:03.475Z,13.77
2018-09-01T09:13:39.027Z,13.84
2018-09-01T09:16:14.616Z,13.96
2018-09-01T09:18:50.016Z,13.90
2018-09-01T09:21:24.848Z,13.86
2018-09-01T09:23:59.291Z,13.85
2018-09-01T09:26:34.291Z,13.87
2018-09-01T09:29:08.903Z,13.84
2018-09-01T09:31:43.415Z,13.81
2018-09-01T09:34:17.855Z,13.82
2018-09-01T09:36:52.683Z,13.78
2018-09-01T09:39:27.635Z,13.78
2018-09-01T09:42:02.393Z,13.74
2018-09-01T09:44:37.608Z,13.77
2018-09-01T09:47:12.177Z,13.80
2018-09-01T09:49:46.770Z,13.99
2018-09-01T09:52:21.056Z,13.93
2018-09-01T09:54:56.751Z,13.95
2018-09-01T09:57:32.343Z,14.02
2018-09-01T10:00:07.423Z,14.02
2018-09-01T10:02:41.735Z,13.93
2018-09-01T10:05:18.239Z,13.91
2018-09-01T10:07:58.059Z,13.99
2018-09-01T10:10:32.524Z,14.09
2018-09-01T10:13:06.963Z,14.08
2018-09-01T10:15:41.413Z,13.91
2018-09-01T10:18:16.315Z,13.92
2018-09-01T10:20:50.895Z,14.02
2018-09-01T10:23:25.535Z,14.04
2018-09-01T10:25:59.929Z,14.00
2018-09-01T10:28:35.035Z,13.97
2018-09-01T10:31:10.555Z,13.90
2018-09-01T10:33:45.236Z,13.96
2018-09-01T10:36:19.850Z,14.04
2018-09-01T10:38:54.560Z,14.10
2018-09-01T10:41:29.280Z,14.09
2018-09-01T10:44:04.535Z,14.12
2018-09-01T10:46:39.166Z,14.10
2018-09-01T10:49:14.007Z,14.21
2018-09-01T10:51:48.324Z,14.13
2018-09-01T10:54:22.828Z,14.08
2018-09-01T10:56:57.204Z,14.13
2018-09-01T10:59:31.853Z,14.07
2018-09-01T11:02:07.364Z,13.98
2018-09-01T11:04:41.858Z,14.05
2018-09-01T11:07:16.369Z,14.16
2018-09-01T11:09:51.064Z,14.28
2018-09-01T11:12:25.643Z,14.54
2018-09-01T11:15:00.348Z,14.73
2018-09-01T11:17:34.832Z,14.82
2018-09-01T11:20:10.218Z,14.89
2018-09-01T11:22:45.170Z,14.92
2018-09-01T11:25:19.619Z,14.86
2018-09-01T11:27:54.665Z,14.81
2018-09-01T11:30:29.497Z,14.82
2018-09-01T11:33:04.627Z,14.75
2018-09-01T11:35:39.940Z,14.59
2018-09-01T11:38:14.796Z,14.52
2018-09-01T11:40:49.287Z,14.35
2018-09-01T11:43:23.694Z,14.41
2018-09-01T11:45:58.389Z,14.49
2018-09-01T11:48:33.125Z,14.56
2018-09-01T11:51:07.935Z,14.17
2018-09-01T11:53:42.673Z,14.20
2018-09-01T11:56:17.242Z,14.27
2018-09-01T11:58:52.621Z,14.43
2018-09-01T12:01:27.987Z,14.49
2018-09-01T12:04:02.632Z,14.56
2018-09-01T12:06:37.370Z,14.65
2018-09-01T12:09:12.027Z,14.77
2018-09-01T12:11:47.058Z,14.73
2018-09-01T12:14:21.687Z,14.66
2018-09-01T12:16:56.094Z,14.63
2018-09-01T12:19:31.216Z,14.62
2018-09-01T12:22:06.232Z,14.51
2018-09-01T12:24:41.001Z,14.44
2018-09-01T12:27:15.620Z,14.35
2018-09-01T12:29:50.212Z,14.43
2018-09-01T12:32:24.584Z,14.32
2018-09-01T12:34:59.590Z,14.14
2018-09-01T12:37:34.091Z,14.23
2018-09-01T12:40:09.055Z,14.26
2018-09-01T12:42:43.405Z,14.41
2018-09-01T12:45:17.900Z,14.35
2018-09-01T12:47:52.453Z,14.40
2018-09-01T12:50:26.944Z,14.45
2018-09-01T12:53:01.424Z,14.40
2018-09-01T12:55:36.044Z,14.20
2018-09-01T12:58:10.519Z,14.05
2018-09-01T13:00:45.425Z,14.03
2018-09-01T13:03:20.512Z,14.08
2018-09-01T13:05:55.094Z,14.21
2018-09-01T13:08:29.516Z,14.27
2018-09-01T13:11:04.516Z,14.34
2018-09-01T13:13:39.316Z,14.48
2018-09-01T13:16:14.948Z,14.48
2018-09-01T13:18:49.399Z,14.57
2018-09-01T13:21:23.862Z,14.46
2018-09-01T13:23:58.160Z,14.44
2018-09-01T13:26:32.573Z,14.38
2018-09-01T13:29:07.595Z,14.20
2018-09-01T13:31:42.319Z,14.11
2018-09-01T13:34:16.917Z,14.05
2018-09-01T13:36:52.063Z,13.91
2018-09-01T13:39:26.827Z,13.75
2018-09-01T13:42:01.355Z,13.80
2018-09-01T13:44:36.140Z,13.72
2018-09-01T13:47:10.876Z,13.58
2018-09-01T13:49:45.711Z,13.59
2018-09-01T13:52:20.428Z,13.55
2018-09-01T13:54:55.098Z,13.59
2018-09-01T13:57:29.764Z,13.59
2018-09-01T14:00:06.756Z,13.62
2018-09-01T14:02:41.660Z,13.59
2018-09-01T14:05:16.476Z,13.60
2018-09-01T14:07:51.261Z,13.74
2018-09-01T14:10:26.307Z,13.77
2018-09-01T14:13:00.744Z,13.71
2018-09-01T14:15:35.437Z,13.63
2018-09-01T14:18:10.079Z,13.64
2018-09-01T14:20:44.938Z,13.71
2018-09-01T14:23:19.556Z,13.65
2018-09-01T14:25:54.016Z,13.69
2018-09-01T14:28:28.748Z,13.66
2018-09-01T14:31:03.243Z,13.64
2018-09-01T14:33:37.694Z,13.60
2018-09-01T14:36:12.053Z,13.55
2018-09-01T14:38:46.576Z,13.65
2018-09-01T14:41:21.161Z,13.75
2018-09-01T14:43:55.579Z,13.82
2018-09-01T14:46:30.766Z,13.76
2018-09-01T14:49:06.316Z,13.73
2018-09-01T14:51:41.332Z,13.69
2018-09-01T14:54:15.732Z,13.73
2018-09-01T14:56:50.088Z,13.66
2018-09-01T14:59:24.709Z,13.65
2018-09-01T15:01:59.444Z,13.64
2018-09-01T15:04:34.347Z,13.66
2018-09-01T15:07:09.061Z,13.60
2018-09-01T15:09:43.975Z,13.53
2018-09-01T15:12:18.663Z,13.51
2018-09-01T15:14:53.444Z,13.47
2018-09-01T15:17:28.412Z,13.49
2018-09-01T15:20:04.025Z,13.53
2018-09-01T15:22:38.551Z,13.59
2018-09-01T15:25:13.800Z,13.72
2018-09-01T15:27:48.272Z,13.80
2018-09-01T15:30:22.682Z,13.71
2018-09-01T15:32:57.715Z,13.71
2018-09-01T15:35:32.470Z,13.65
2018-09-01T15:38:08.186Z,13.70
2018-09-01T15:40:42.719Z,13.58
2018-09-01T15:43:17.388Z,13.53
2018-09-01T15:45:51.903Z,13.58
2018-09-01T15:48:26.184Z,13.55
2018-09-01T15:51:01.074Z,13.57
2018-09-01T15:53:36.020Z,13.53
2018-09-01T15:56:10.670Z,13.35
2018-09-01T15:58:45.415Z,13.38
2018-09-01T16:01:19.963Z,13.31
2018-09-01T16:03:54.371Z,13.31
2018-09-01T16:06:28.835Z,13.30
2018-09-01T16:09:04.707Z,13.19
2018-09-01T16:11:39.267Z,13.24
2018-09-01T16:14:13.940Z,13.30
2018-09-01T16:16:48.503Z,13.35
2018-09-01T16:19:23.363Z,13.32
2018-09-01T16:21:58.156Z,13.42
2018-09-01T16:24:32.715Z,13.44
2018-09-01T16:27:07.755Z,13.44
2018-09-01T16:29:42.105Z,13.42
2018-09-01T16:34:57.384Z,13.36
2018-09-01T16:37:32.142Z,13.33
2018-09-01T16:40:06.930Z,13.38
2018-09-01T16:42:41.792Z,13.32
2018-09-01T16:45:16.284Z,13.30
2018-09-01T16:47:50.854Z,13.32
2018-09-01T16:50:25.899Z,13.31
2018-09-01T16:53:00.332Z,13.33
2018-09-01T16:55:34.678Z,13.39
2018-09-01T16:58:09.400Z,13.25
2018-09-01T17:00:44.187Z,13.15
2018-09-01T17:03:18.968Z,13.20
2018-09-01T17:05:53.387Z,13.18
2018-09-01T17:08:28.215Z,13.16
2018-09-01T17:11:03.814Z,13.10
2018-09-01T17:13:38.574Z,13.07
2018-09-01T17:16:13.415Z,13.16
2018-09-01T17:18:51.920Z,13.09
2018-09-01T17:21:26.261Z,13.16
2018-09-01T17:24:00.700Z,13.09
2018-09-01T17:26:35.071Z,13.03
2018-09-01T17:29:09.372Z,13.11
2018-09-01T17:31:44.355Z,13.18
2018-09-01T17:34:18.995Z,13.19
2018-09-01T17:36:53.640Z,13.21
2018-09-01T17:39:28.144Z,13.10
2018-09-01T17:42:02.675Z,13.16
2018-09-01T17:44:37.326Z,13.12
2018-09-01T17:47:11.943Z,13.05
2018-09-01T17:49:46.256Z,13.05
2018-09-01T17:52:20.931Z,12.98
2018-09-01T17:54:55.444Z,12.95
2018-09-01T17:57:30.396Z,13.00
2018-09-01T18:00:05.287Z,12.93
2018-09-01T18:02:39.778Z,12.91
2018-09-01T18:05:15.499Z,12.92
2018-09-01T18:07:50.136Z,12.98
2018-09-01T18:10:25.096Z,13.04
2018-09-01T18:13:00.263Z,13.07
2018-09-01T18:15:35.375Z,13.17
2018-09-01T18:18:09.928Z,13.09
2018-09-01T18:20:44.932Z,13.10
2018-09-01T18:23:19.480Z,13.03
2018-09-01T18:25:53.776Z,13.01
2018-09-01T18:28:28.263Z,12.85
2018-09-01T18:31:02.750Z,12.98
2018-09-01T18:33:37.230Z,12.91
2018-09-01T18:36:11.722Z,12.89
2018-09-01T18:38:46.951Z,12.96
2018-09-01T18:41:22.099Z,12.97
2018-09-01T18:43:56.742Z,12.92
2018-09-01T18:46:31.659Z,12.91
2018-09-01T18:49:07.881Z,12.88
2018-09-01T18:51:43.256Z,12.97
2018-09-01T18:54:18.089Z,12.95
2018-09-01T18:56:52.921Z,13.05
2018-09-01T18:59:27.409Z,13.01
2018-09-01T19:02:01.756Z,13.15
2018-09-01T19:04:36.089Z,13.21
2018-09-01T19:07:11.119Z,13.07
2018-09-01T19:09:45.627Z,13.02
2018-09-01T19:12:20.770Z,13.10
2018-09-01T19:14:56.018Z,13.05
2018-09-01T19:17:30.329Z,13.02
2018-09-01T19:20:05.297Z,13.07
2018-09-01T19:22:39.842Z,12.92
2018-09-01T19:25:14.756Z,12.91
2018-09-01T19:27:49.486Z,12.79
2018-09-01T19:30:23.879Z,12.69
2018-09-01T19:32:58.694Z,12.64
2018-09-01T19:35:33.583Z,12.58
2018-09-01T19:38:07.875Z,12.54
2018-09-01T19:40:42.643Z,12.58
2018-09-01T19:43:17.399Z,12.50
2018-09-01T19:45:52.544Z,12.41
2018-09-01T19:48:27.469Z,12.47
2018-09-01T19:51:02.091Z,12.47
2018-09-01T19:53:36.950Z,12.46
2018-09-01T19:56:11.387Z,12.45
2018-09-01T19:58:45.807Z,12.40
2018-09-01T20:01:20.300Z,12.37
2018-09-01T20:03:55.403Z,12.42
2018-09-01T20:06:30.339Z,12.38
2018-09-01T20:09:05.754Z,12.32
2018-09-01T20:11:40.132Z,12.34
2018-09-01T20:14:15.191Z,12.40
2018-09-01T20:16:51.083Z,12.36
2018-09-01T20:19:26.193Z,12.41
2018-09-01T20:22:00.852Z,12.47
2018-09-01T20:24:35.308Z,12.41
2018-09-01T20:27:10.568Z,12.51
2018-09-01T20:29:45.395Z,12.49
2018-09-01T20:32:20.216Z,12.42
2018-09-01T20:34:58.836Z,12.36
2018-09-01T20:37:33.508Z,12.30
2018-09-01T20:40:08.144Z,12.33
2018-09-01T20:42:42.882Z,12.26
2018-09-01T20:45:18.091Z,12.35
2018-09-01T20:47:52.895Z,12.32
2018-09-01T20:50:27.864Z,12.37
2018-09-01T20:53:02.323Z,12.40
2018-09-01T20:55:42.587Z,12.45
2018-09-01T20:58:17.245Z,12.46
2018-09-01T21:00:52.103Z,12.43
2018-09-01T21:03:26.858Z,12.58
2018-09-01T21:06:01.432Z,12.53
2018-09-01T21:08:36.218Z,12.60
2018-09-01T21:11:10.850Z,12.63
2018-09-01T21:13:45.175Z,12.68
2018-09-01T21:16:20.023Z,12.60
2018-09-01T21:18:55.254Z,12.56
2018-09-01T21:21:29.658Z,12.56
2018-09-01T21:24:04.439Z,12.52
2018-09-01T21:26:39.143Z,12.49
2018-09-01T21:29:14.035Z,12.44
2018-09-01T21:31:48.800Z,12.47
2018-09-01T21:34:23.244Z,12.67
2018-09-01T21:36:58.275Z,12.58
2018-09-01T21:39:32.979Z,12.51
2018-09-01T21:42:07.980Z,12.51
2018-09-01T21:44:42.274Z,12.54
2018-09-01T21:47:17.047Z,12.59
2018-09-01T21:49:52.452Z,12.56
2018-09-01T21:52:27.050Z,12.50
2018-09-01T21:55:02.179Z,12.51
2018-09-01T21:57:36.935Z,12.55
2018-09-01T22:00:11.372Z,12.50
2018-09-01T22:02:45.973Z,12.61
2018-09-01T22:05:21.123Z,12.59
2018-09-01T22:07:55.563Z,12.64
2018-09-01T22:10:30.355Z,12.61
2018-09-01T22:13:05.179Z,12.61
2018-09-01T22:15:39.727Z,12.68
2018-09-01T22:18:14.999Z,12.68
2018-09-01T22:20:49.691Z,12.72
2018-09-01T22:23:24.310Z,12.59
2018-09-01T22:25:58.730Z,12.63
2018-09-01T22:28:33.892Z,12.71
2018-09-01T22:31:09.801Z,12.67
2018-09-01T22:33:45.556Z,12.67
2018-09-01T22:36:20.303Z,12.61
2018-09-01T22:38:54.796Z,12.67
2018-09-01T22:41:29.551Z,12.66
2018-09-01T22:44:04.016Z,12.63
2018-09-01T22:46:39.351Z,12.68
2018-09-01T22:49:14.031Z,12.71
2018-09-01T22:51:48.749Z,12.73
2018-09-01T22:54:23.855Z,12.77
2018-09-01T22:56:58.963Z,12.80
2018-09-01T22:59:33.343Z,12.84
2018-09-01T23:02:08.536Z,12.87
2018-09-01T23:04:43.207Z,12.89
2018-09-01T23:07:18.011Z,12.88
2018-09-01T23:09:52.779Z,12.88
2018-09-01T23:12:27.170Z,12.95
2018-09-01T23:15:01.629Z,12.95
2018-09-01T23:17:36.095Z,12.96
2018-09-01T23:20:11.261Z,12.97
2018-09-01T23:22:46.037Z,13.02
2018-09-01T23:25:20.793Z,13.06
2018-09-01T23:27:55.874Z,13.04
2018-09-01T23:30:30.343Z,13.06
2018-09-01T23:33:05.363Z,13.06
2018-09-01T23:35:39.919Z,13.02
2018-09-01T23:38:14.948Z,12.99
2018-09-01T23:40:50.022Z,12.99
2018-09-01T23:43:25.120Z,13.01
2018-09-01T23:45:59.599Z,13.03
2018-09-01T23:48:34.111Z,12.99
2018-09-01T23:51:08.791Z,13.01
2018-09-01T23:53:43.726Z,13.01
2018-09-01T23:56:18.888Z,13.07
2018-09-01T23:58:53.735Z,13.06
